Newark, Indiana
Current Conditions -  °F | °C
As of 7:53 AM on Thursday 23 Oct 2014 (Local Time) from KBMG Reporting Station
Haze Haze  
Wind Chill: 34°   Ceiling: Unl
Heat Index: 34°   Visibility: 4mi
Dew Point: 33°   Wind: 3mph
Humidity: 96%   Direction: 160°SSE
Pressure: 30.26"   Gusts: NA
Location:  39.1236°N, 86.7572°W
Report Text: KBMG 231153Z 16003KT 4SM BR CLR 01/01 A3026 RMK AO2 SLP250 I6000 T00110006 10033 20006 53002
Loading
Personal Weather Stations






























Interactive Weather Map
Tropical Storm Tracking
New forecast layout! Learn more

10-Day Weather Forecast

Advertisements
Track Severe Weather on mobile